Time;durP1;ratioP1;P1;durP2;ratioP2;P2;SDS_P1;SDS_P2;PMS_P1;PMS_P2;Temp;Humidity;BMP_temperature;BMP_pressure;BME280_temperature;BME280_humidity;BME280_pressure;Samples;Min_cycle;Max_cycle;Signal;HPM_P1;HPM_P2
2022/11/29 00:01:14;;;;;;;10.83;8.70;;;10.10;98.30;;;;;;961200;146;27376;-78
2022/11/29 00:03:40;;;;;;;12.93;9.63;;;10.10;98.30;;;;;;947143;148;27452;-77
2022/11/29 00:06:07;;;;;;;10.23;9.13;;;10.10;98.40;;;;;;949632;149;27267;-78
2022/11/29 00:08:34;;;;;;;11.40;9.13;;;10.20;98.40;;;;;;937568;151;27983;-78
2022/11/29 00:11:06;;;;;;;9.00;8.13;;;10.10;98.40;;;;;;950932;148;27210;-79
2022/11/29 00:13:32;;;;;;;11.57;8.93;;;10.10;98.50;;;;;;948380;148;27906;-77
2022/11/29 00:16:02;;;;;;;12.53;9.30;;;10.10;98.50;;;;;;948355;148;27274;-77
2022/11/29 00:18:28;;;;;;;11.63;9.50;;;10.10;98.60;;;;;;947955;148;27329;-79
2022/11/29 00:20:55;;;;;;;9.50;8.50;;;10.10;98.60;;;;;;945210;148;27339;-78
2022/11/29 00:23:22;;;;;;;10.40;9.03;;;10.10;98.70;;;;;;950248;148;27180;-78
2022/11/29 00:25:48;;;;;;;10.70;9.10;;;10.10;98.60;;;;;;936938;151;27463;-79
2022/11/29 00:28:15;;;;;;;11.07;9.47;;;10.10;98.70;;;;;;961537;146;27407;-79
2022/11/29 00:30:41;;;;;;;9.57;8.57;;;10.10;98.80;;;;;;961785;146;27293;-78
2022/11/29 00:33:08;;;;;;;10.20;9.00;;;10.10;98.80;;;;;;960082;146;27241;-78
2022/11/29 00:35:35;;;;;;;9.37;8.37;;;10.10;98.80;;;;;;960374;146;27412;-79
2022/11/29 00:38:01;;;;;;;11.13;9.67;;;10.10;98.80;;;;;;961620;146;27299;-79
2022/11/29 00:40:28;;;;;;;10.93;8.73;;;10.10;98.90;;;;;;962255;146;27394;-78
2022/11/29 00:42:54;;;;;;;10.57;8.73;;;10.10;99.00;;;;;;961499;146;27355;-78
2022/11/29 00:45:21;;;;;;;8.90;8.00;;;10.10;99.10;;;;;;961377;146;27742;-78
2022/11/29 00:47:47;;;;;;;10.17;9.13;;;10.10;99.00;;;;;;961939;146;27317;-79
2022/11/29 00:50:14;;;;;;;10.57;9.50;;;10.10;99.10;;;;;;946138;148;27422;-79
2022/11/29 00:52:41;;;;;;;10.23;9.13;;;10.10;99.10;;;;;;935736;151;27888;-78
2022/11/29 00:55:07;;;;;;;8.90;8.00;;;10.10;99.20;;;;;;934988;151;27483;-79
2022/11/29 00:57:34;;;;;;;10.47;9.37;;;10.10;99.20;;;;;;933007;150;27327;-78
2022/11/29 01:00:00;;;;;;;12.83;9.77;;;10.10;99.30;;;;;;951689;148;27298;-78
2022/11/29 01:02:27;;;;;;;10.57;9.50;;;10.10;99.40;;;;;;936807;151;27338;-78
2022/11/29 01:04:54;;;;;;;10.10;9.10;;;10.10;99.40;;;;;;961675;146;27427;-79
2022/11/29 01:07:20;;;;;;;10.33;8.87;;;10.10;99.40;;;;;;946806;148;27367;-78
2022/11/29 01:09:47;;;;;;;9.17;8.27;;;10.10;99.40;;;;;;935438;151;27439;-78
2022/11/29 01:12:13;;;;;;;11.20;8.83;;;10.10;99.40;;;;;;925921;150;27434;-78
2022/11/29 01:14:40;;;;;;;9.93;8.90;;;10.10;99.40;;;;;;917393;152;27405;-79
2022/11/29 01:17:07;;;;;;;10.13;8.77;;;10.10;99.40;;;;;;943295;150;27325;-79
2022/11/29 01:19:33;;;;;;;9.77;8.53;;;10.10;99.30;;;;;;923704;152;27378;-78
2022/11/29 01:22:00;;;;;;;10.07;8.67;;;10.10;99.30;;;;;;921896;153;27290;-78
2022/11/29 01:24:28;;;;;;;10.20;9.03;;;10.10;99.30;;;;;;938560;150;27383;-78
2022/11/29 01:26:53;;;;;;;10.10;8.53;;;10.10;99.40;;;;;;938485;150;27346;-78
2022/11/29 01:29:19;;;;;;;9.53;8.60;;;10.10;99.40;;;;;;941024;149;27231;-78
2022/11/29 01:31:46;;;;;;;10.73;8.83;;;10.10;99.50;;;;;;919108;153;27396;-78
2022/11/29 01:34:13;;;;;;;9.57;8.57;;;10.10;99.50;;;;;;932094;149;27765;-78
2022/11/29 01:36:39;;;;;;;9.83;8.67;;;10.10;99.60;;;;;;931238;151;27300;-78
2022/11/29 01:39:06;;;;;;;9.13;8.07;;;10.10;99.60;;;;;;916399;153;27335;-78
2022/11/29 01:41:32;;;;;;;9.90;8.90;;;10.10;99.70;;;;;;936458;151;27771;-79
2022/11/29 01:44:05;;;;;;;10.83;8.23;;;10.10;99.70;;;;;;928588;149;27420;-79
2022/11/29 01:46:32;;;;;;;10.47;8.17;;;10.10;99.70;;;;;;922678;152;27471;-79
2022/11/29 01:48:58;;;;;;;9.87;8.67;;;10.10;99.80;;;;;;922429;152;27401;-78
2022/11/29 01:51:25;;;;;;;11.50;8.87;;;10.10;99.90;;;;;;939300;149;27390;-78
2022/11/29 01:53:51;;;;;;;11.53;9.07;;;10.10;99.80;;;;;;939429;149;27639;-78
2022/11/29 01:56:18;;;;;;;9.23;8.03;;;10.10;99.90;;;;;;938488;149;27808;-79
2022/11/29 01:58:44;;;;;;;9.40;8.37;;;10.10;99.90;;;;;;917480;153;27389;-78
2022/11/29 02:01:11;;;;;;;9.83;8.67;;;10.10;99.90;;;;;;939525;150;27357;-78
2022/11/29 02:03:38;;;;;;;9.97;8.53;;;10.10;99.90;;;;;;939624;149;27269;-78
2022/11/29 02:06:04;;;;;;;9.43;8.50;;;10.10;99.90;;;;;;916336;153;27378;-78
2022/11/29 02:08:36;;;;;;;10.50;8.80;;;10.10;99.90;;;;;;939343;149;27395;-79
2022/11/29 02:11:15;;;;;;;10.67;8.77;;;10.10;99.90;;;;;;938880;148;27472;-79
2022/11/29 02:13:47;;;;;;;9.63;8.33;;;10.20;99.90;;;;;;918832;150;27362;-79
2022/11/29 02:16:25;;;;;;;9.47;8.47;;;10.10;99.90;;;;;;943019;151;27425;-79
2022/11/29 02:19:03;;;;;;;9.17;7.97;;;10.20;99.90;;;;;;943144;149;27342;-78
2022/11/29 02:21:32;;;;;;;8.67;7.80;;;10.20;99.90;;;;;;941949;151;27367;-77
2022/11/29 02:24:17;;;;;;;11.03;8.63;;;10.20;99.90;;;;;;943177;149;27297;-78
2022/11/29 02:27:02;;;;;;;8.33;7.53;;;10.20;99.90;;;;;;916925;152;27392;-78
2022/11/29 02:29:31;;;;;;;9.33;8.23;;;10.20;99.90;;;;;;936374;150;27345;-77
2022/11/29 02:32:03;;;;;;;9.27;7.80;;;10.10;99.90;;;;;;919750;152;27504;-78
2022/11/29 02:34:51;;;;;;;9.63;8.10;;;10.20;99.90;;;;;;943185;149;27404;-78
2022/11/29 02:37:48;;;;;;;9.33;7.70;;;10.20;99.90;;;;;;943930;151;27300;-78
2022/11/29 02:40:42;;;;;;;9.33;7.87;;;10.20;99.90;;;;;;942851;151;27385;-78
2022/11/29 02:43:17;;;;;;;8.27;7.43;;;10.20;99.90;;;;;;943887;151;27345;-78
2022/11/29 02:45:44;;;;;;;9.60;8.13;;;10.20;99.90;;;;;;943090;149;27378;-78
2022/11/29 02:48:10;;;;;;;8.57;7.67;;;10.20;99.90;;;;;;944060;149;27363;-77
2022/11/29 02:50:58;;;;;;;8.67;7.77;;;10.20;99.90;;;;;;942900;151;27308;-78
2022/11/29 02:53:40;;;;;;;9.03;7.60;;;10.20;99.90;;;;;;944734;150;27317;-79
2022/11/29 02:56:31;;;;;;;8.77;7.50;;;10.20;99.90;;;;;;942468;151;27430;-78
2022/11/29 02:59:06;;;;;;;8.43;7.50;;;10.20;99.90;;;;;;942767;149;27375;-78
2022/11/29 03:01:48;;;;;;;8.53;7.43;;;10.30;99.90;;;;;;943788;150;27758;-79
2022/11/29 03:06:58;;;;;;;8.00;7.20;;;10.30;99.90;;;;;;973036;144;38740;-79
2022/11/29 03:09:36;;;;;;;8.73;7.87;;;10.30;99.90;;;;;;935044;147;27387;-78
2022/11/29 03:12:18;;;;;;;8.30;7.43;;;10.30;99.90;;;;;;923682;152;27321;-78
2022/11/29 03:14:50;;;;;;;7.80;7.00;;;10.30;99.90;;;;;;924054;152;27380;-78
2022/11/29 03:17:17;;;;;;;8.43;7.20;;;10.30;99.90;;;;;;923003;152;27352;-78
2022/11/29 03:19:58;;;;;;;8.43;7.40;;;10.30;99.90;;;;;;920812;152;27326;-78
2022/11/29 03:22:30;;;;;;;8.33;7.53;;;10.30;99.90;;;;;;924513;152;27299;-78
2022/11/29 03:25:12;;;;;;;8.17;7.33;;;10.30;99.90;;;;;;923231;149;27464;-79
2022/11/29 03:27:42;;;;;;;8.17;6.87;;;10.30;99.90;;;;;;922927;150;27389;-78
2022/11/29 03:30:08;;;;;;;8.10;7.30;;;10.30;99.90;;;;;;922674;152;27420;-77
2022/11/29 03:32:47;;;;;;;8.30;7.50;;;10.30;99.90;;;;;;924996;152;27806;-77
2022/11/29 03:35:32;;;;;;;7.37;6.67;;;10.30;99.90;;;;;;906071;152;28211;-78
2022/11/29 03:38:20;;;;;;;7.70;6.80;;;10.30;99.90;;;;;;924118;152;27362;-78
2022/11/29 03:41:08;;;;;;;7.50;6.80;;;10.30;99.90;;;;;;926216;150;27397;-77
2022/11/29 03:43:43;;;;;;;8.27;7.47;;;10.30;99.90;;;;;;924247;152;27294;-79
2022/11/29 03:46:28;;;;;;;8.43;7.60;;;10.30;99.90;;;;;;920751;149;27391;-78
2022/11/29 03:49:07;;;;;;;6.93;6.30;;;10.30;99.90;;;;;;924172;149;27383;-78
2022/11/29 03:51:48;;;;;;;7.50;6.67;;;10.20;99.90;;;;;;919089;150;27335;-78
2022/11/29 03:54:15;;;;;;;8.07;6.93;;;10.20;99.90;;;;;;923044;151;27319;-78
2022/11/29 03:56:42;;;;;;;7.93;7.13;;;10.20;99.90;;;;;;916654;149;27708;-78
2022/11/29 03:59:45;;;;;;;7.30;6.60;;;10.20;99.90;;;;;;925956;151;27463;-77
2022/11/29 04:02:24;;;;;;;7.67;6.83;;;10.20;99.90;;;;;;922401;152;27295;-78
2022/11/29 04:05:09;;;;;;;7.80;7.00;;;10.20;99.90;;;;;;924986;149;27455;-78
2022/11/29 04:07:50;;;;;;;10.13;7.30;;;10.20;99.90;;;;;;924230;151;27394;-78
2022/11/29 04:10:32;;;;;;;7.50;6.67;;;10.10;99.90;;;;;;922113;150;27266;-77
2022/11/29 04:13:35;;;;;;;7.23;6.33;;;10.10;99.90;;;;;;920448;151;27305;-78
2022/11/29 04:16:11;;;;;;;7.10;6.40;;;10.10;99.90;;;;;;922268;151;27760;-78
2022/11/29 04:19:14;;;;;;;6.70;6.10;;;10.10;99.90;;;;;;915448;151;27246;-78
2022/11/29 04:21:59;;;;;;;7.27;6.60;;;10.10;99.90;;;;;;921247;151;27842;-79
2022/11/29 04:24:53;;;;;;;6.70;6.10;;;10.00;99.90;;;;;;920258;151;27312;-79
2022/11/29 04:27:22;;;;;;;7.20;6.50;;;10.00;99.90;;;;;;920899;150;27716;-79
2022/11/29 04:29:51;;;;;;;6.93;6.23;;;10.00;99.90;;;;;;922259;151;27438;-78
2022/11/29 04:32:39;;;;;;;6.60;6.00;;;10.00;99.90;;;;;;922793;151;27318;-77
2022/11/29 04:35:14;;;;;;;7.23;6.50;;;10.00;99.90;;;;;;923977;151;27277;-78
2022/11/29 04:37:59;;;;;;;6.77;6.17;;;10.10;99.90;;;;;;921207;151;27312;-78
2022/11/29 04:40:56;;;;;;;5.87;5.30;;;10.10;99.90;;;;;;922501;151;27409;-78
2022/11/29 04:43:53;;;;;;;7.50;6.00;;;10.00;99.90;;;;;;922109;151;27387;-79
2022/11/29 04:46:40;;;;;;;6.57;5.87;;;10.10;99.90;;;;;;923375;150;27429;-79
2022/11/29 04:49:19;;;;;;;6.90;6.20;;;10.10;99.90;;;;;;921431;151;27255;-78
2022/11/29 04:52:13;;;;;;;6.70;6.00;;;10.10;99.90;;;;;;920661;151;27254;-78
2022/11/29 04:54:51;;;;;;;6.83;6.13;;;10.10;99.90;;;;;;920964;151;27796;-78
2022/11/29 04:57:21;;;;;;;5.93;5.43;;;10.10;99.90;;;;;;922826;150;27271;-78
2022/11/29 04:59:53;;;;;;;6.63;6.00;;;10.10;99.90;;;;;;916842;151;27357;-78
2022/11/29 05:02:32;;;;;;;6.20;5.60;;;10.10;99.90;;;;;;921185;150;27242;-78
2022/11/29 05:05:01;;;;;;;7.43;6.63;;;10.10;99.90;;;;;;920648;151;27384;-78
2022/11/29 05:07:36;;;;;;;7.37;6.57;;;10.10;99.90;;;;;;917069;151;27995;-78
2022/11/29 05:10:24;;;;;;;10.03;7.43;;;10.10;99.90;;;;;;916251;151;27460;-77
2022/11/29 05:12:56;;;;;;;7.50;6.80;;;10.10;99.90;;;;;;933401;148;27251;-78
2022/11/29 05:15:50;;;;;;;7.50;6.43;;;10.10;99.90;;;;;;934598;148;27304;-78
2022/11/29 05:18:32;;;;;;;6.67;6.07;;;10.10;99.90;;;;;;933070;148;27343;-78
2022/11/29 05:21:04;;;;;;;6.47;5.87;;;10.10;99.90;;;;;;932130;148;27433;-79
2022/11/29 05:23:59;;;;;;;6.80;6.10;;;10.10;99.90;;;;;;934510;147;27382;-78
2022/11/29 05:26:40;;;;;;;7.13;6.43;;;10.10;99.90;;;;;;932291;148;27368;-78
2022/11/29 05:29:12;;;;;;;7.47;6.77;;;10.20;99.90;;;;;;933056;148;27809;-78
2022/11/29 05:32:02;;;;;;;6.30;5.70;;;10.20;99.90;;;;;;933545;148;27420;-79
2022/11/29 05:34:44;;;;;;;7.20;6.50;;;10.20;99.90;;;;;;935488;149;27367;-78
2022/11/29 05:37:28;;;;;;;6.63;6.00;;;10.20;99.90;;;;;;934036;148;27470;-78
2022/11/29 05:40:10;;;;;;;7.50;6.37;;;10.20;99.90;;;;;;931808;148;27349;-78
2022/11/29 05:42:39;;;;;;;6.50;5.63;;;10.20;99.90;;;;;;932993;148;27841;-78
2022/11/29 05:45:12;;;;;;;6.33;5.63;;;10.20;99.90;;;;;;928188;147;28022;-78
2022/11/29 05:47:57;;;;;;;6.37;5.50;;;10.20;99.90;;;;;;934883;148;27386;-78
2022/11/29 05:50:48;;;;;;;6.30;5.73;;;10.20;99.90;;;;;;935088;148;27919;-78
2022/11/29 05:53:29;;;;;;;5.40;4.90;;;10.20;99.90;;;;;;934619;148;28239;-78
2022/11/29 05:55:59;;;;;;;6.00;5.40;;;10.20;99.90;;;;;;932787;148;27412;-78
2022/11/29 05:58:47;;;;;;;5.27;4.77;;;10.20;99.90;;;;;;931311;148;27363;-78
2022/11/29 06:01:20;;;;;;;5.53;5.03;;;10.20;99.90;;;;;;932329;148;27328;-78
2022/11/29 06:04:01;;;;;;;6.30;5.70;;;10.20;99.90;;;;;;933067;148;27333;-78
2022/11/29 06:06:46;;;;;;;7.07;5.83;;;10.20;99.90;;;;;;935574;148;27460;-78
2022/11/29 06:09:18;;;;;;;5.60;5.10;;;10.20;99.90;;;;;;934255;148;27547;-78
2022/11/29 06:11:45;;;;;;;6.13;5.53;;;10.20;99.90;;;;;;933691;151;27386;-79
2022/11/29 06:14:18;;;;;;;6.20;5.60;;;10.20;99.90;;;;;;934810;151;27339;-78
2022/11/29 06:17:15;;;;;;;6.90;5.63;;;10.20;99.90;;;;;;933674;151;27300;-78
2022/11/29 06:19:47;;;;;;;5.77;5.27;;;10.20;99.90;;;;;;934228;148;27337;-78
2022/11/29 06:22:28;;;;;;;6.93;6.17;;;10.20;99.90;;;;;;935056;151;27374;-78
2022/11/29 06:25:15;;;;;;;6.57;5.97;;;10.20;99.90;;;;;;933095;149;28084;-78
2022/11/29 06:27:56;;;;;;;6.23;5.63;;;10.20;99.90;;;;;;934689;151;27338;-78
2022/11/29 06:30:21;;;;;;;6.30;5.70;;;10.20;99.90;;;;;;936447;148;27305;-78
2022/11/29 06:32:49;;;;;;;6.43;5.83;;;10.20;99.90;;;;;;934267;151;27474;-78
2022/11/29 06:35:20;;;;;;;6.10;5.50;;;10.20;99.90;;;;;;934847;149;27406;-78
2022/11/29 06:37:49;;;;;;;6.73;5.77;;;10.20;99.90;;;;;;934447;151;27342;-78
2022/11/29 06:40:16;;;;;;;8.40;6.23;;;10.20;99.90;;;;;;934831;151;27400;-78
2022/11/29 06:42:43;;;;;;;6.63;6.00;;;10.30;99.90;;;;;;935399;148;27345;-77
2022/11/29 06:45:12;;;;;;;7.10;6.40;;;10.30;99.90;;;;;;935560;149;27353;-78
2022/11/29 06:47:57;;;;;;;6.57;5.97;;;10.30;99.90;;;;;;933255;151;27329;-78
2022/11/29 06:50:42;;;;;;;7.30;5.77;;;10.30;99.90;;;;;;934619;151;28339;-78
2022/11/29 06:53:36;;;;;;;6.63;5.97;;;10.30;99.90;;;;;;934257;151;27775;-78
2022/11/29 06:56:07;;;;;;;7.50;5.83;;;10.30;99.90;;;;;;934276;151;27367;-79
2022/11/29 06:58:46;;;;;;;9.40;6.50;;;10.30;99.90;;;;;;934727;148;27399;-79
2022/11/29 07:01:15;;;;;;;9.10;7.63;;;10.30;99.90;;;;;;935272;151;27357;-78
2022/11/29 07:03:56;;;;;;;8.13;7.30;;;10.30;99.90;;;;;;936398;149;27356;-78
2022/11/29 07:06:26;;;;;;;8.67;7.60;;;10.20;99.90;;;;;;935548;149;27358;-79
2022/11/29 07:08:59;;;;;;;11.50;9.80;;;10.20;99.90;;;;;;934518;148;27516;-79
2022/11/29 07:11:25;;;;;;;15.50;9.10;;;10.30;99.90;;;;;;934058;148;27467;-78
2022/11/29 07:13:52;;;;;;;7.47;6.77;;;10.30;99.90;;;;;;934075;148;27382;-78
2022/11/29 07:16:21;;;;;;;7.80;7.00;;;10.30;99.90;;;;;;933862;148;27333;-78
2022/11/29 07:18:51;;;;;;;6.93;6.23;;;10.20;99.90;;;;;;935931;148;27471;-79
2022/11/29 07:21:20;;;;;;;8.70;7.27;;;10.30;99.90;;;;;;931685;148;27519;-79
2022/11/29 07:24:05;;;;;;;7.00;6.40;;;10.20;99.90;;;;;;934940;148;27424;-78
2022/11/29 07:26:43;;;;;;;6.80;6.20;;;10.20;99.90;;;;;;934919;148;27419;-78
2022/11/29 07:29:21;;;;;;;7.17;6.57;;;10.20;99.90;;;;;;935736;147;27885;-78
2022/11/29 07:32:09;;;;;;;7.20;6.50;;;10.20;99.90;;;;;;933697;148;27389;-78
2022/11/29 07:34:48;;;;;;;7.33;6.63;;;10.20;99.90;;;;;;935025;148;27370;-77
2022/11/29 07:37:14;;;;;;;7.17;6.47;;;10.20;99.90;;;;;;934894;148;27443;-78
2022/11/29 07:39:47;;;;;;;8.00;7.27;;;10.20;99.90;;;;;;933259;148;27346;-78
2022/11/29 07:42:19;;;;;;;7.43;6.73;;;10.20;99.90;;;;;;934110;148;27774;-79
2022/11/29 07:44:54;;;;;;;6.50;5.90;;;10.20;99.90;;;;;;934505;148;27360;-77
2022/11/29 07:47:21;;;;;;;8.30;6.60;;;10.20;99.90;;;;;;935491;148;27881;-77
2022/11/29 07:49:48;;;;;;;8.33;6.17;;;10.20;99.90;;;;;;933240;148;27421;-78
2022/11/29 07:52:14;;;;;;;7.27;6.57;;;10.30;99.90;;;;;;934994;148;27357;-77
2022/11/29 07:54:41;;;;;;;6.90;6.20;;;10.30;99.90;;;;;;934978;148;27290;-77
2022/11/29 07:57:07;;;;;;;7.07;5.87;;;10.40;99.90;;;;;;933587;148;27460;-77
2022/11/29 07:59:34;;;;;;;8.30;6.20;;;10.40;99.90;;;;;;935084;148;27322;-78
2022/11/29 08:02:01;;;;;;;9.03;6.33;;;10.40;99.90;;;;;;932633;148;27321;-77
2022/11/29 08:04:27;;;;;;;7.67;6.60;;;10.50;99.90;;;;;;934037;148;27272;-78
2022/11/29 08:06:54;;;;;;;7.27;6.37;;;10.50;99.90;;;;;;933963;148;27261;-78
2022/11/29 08:09:20;;;;;;;8.63;6.97;;;10.60;99.90;;;;;;933170;148;27408;-77
2022/11/29 08:11:47;;;;;;;6.40;5.77;;;10.60;99.90;;;;;;937562;149;27401;-77
2022/11/29 08:14:13;;;;;;;6.90;6.20;;;10.70;99.90;;;;;;935509;151;27287;-77
2022/11/29 08:16:40;;;;;;;7.53;6.23;;;10.70;99.90;;;;;;935121;149;27452;-78
2022/11/29 08:19:07;;;;;;;6.33;5.73;;;10.80;99.90;;;;;;936089;148;27406;-77
2022/11/29 08:21:33;;;;;;;7.17;6.47;;;10.80;99.90;;;;;;936401;151;27404;-78
2022/11/29 08:24:00;;;;;;;7.00;6.10;;;10.80;99.90;;;;;;936886;148;27341;-77
2022/11/29 08:26:28;;;;;;;7.20;6.23;;;10.80;99.90;;;;;;919087;153;27382;-77
2022/11/29 08:28:53;;;;;;;6.50;5.90;;;10.90;99.90;;;;;;923814;150;27342;-77
2022/11/29 08:31:20;;;;;;;7.43;6.73;;;10.90;99.90;;;;;;925542;153;28080;-78
2022/11/29 08:33:46;;;;;;;7.93;6.63;;;10.90;99.90;;;;;;924127;153;27432;-78
2022/11/29 08:36:16;;;;;;;8.77;6.63;;;10.90;99.90;;;;;;925267;150;27430;-78
2022/11/29 08:38:42;;;;;;;7.77;6.80;;;11.00;99.90;;;;;;925299;153;27399;-77
2022/11/29 08:41:09;;;;;;;8.20;7.17;;;11.00;99.90;;;;;;923417;153;27339;-77
2022/11/29 08:43:36;;;;;;;9.53;7.43;;;11.00;99.90;;;;;;924246;153;27445;-79
2022/11/29 08:46:02;;;;;;;8.23;7.43;;;11.10;99.90;;;;;;925537;153;27341;-79
2022/11/29 08:48:29;;;;;;;10.77;7.43;;;11.10;99.90;;;;;;923381;150;27378;-79
2022/11/29 08:50:55;;;;;;;7.60;6.90;;;11.10;99.90;;;;;;925181;153;27413;-78
2022/11/29 08:53:40;;;;;;;9.30;7.93;;;11.20;99.90;;;;;;926264;151;27447;-79
2022/11/29 08:56:06;;;;;;;11.53;8.97;;;11.20;99.90;;;;;;924213;153;27352;-78
2022/11/29 08:58:33;;;;;;;9.73;8.70;;;11.20;99.90;;;;;;923490;153;27442;-78
2022/11/29 09:01:00;;;;;;;10.03;8.13;;;11.30;99.90;;;;;;925293;153;27449;-79
2022/11/29 09:06:11;;;;;;;9.40;8.47;;;11.40;99.90;;;;;;924241;153;27489;-79
2022/11/29 09:08:38;;;;;;;9.43;8.33;;;11.40;99.90;;;;;;922709;153;27406;-79
2022/11/29 09:11:08;;;;;;;10.30;8.83;;;11.40;99.90;;;;;;922797;151;27352;-78
2022/11/29 09:13:34;;;;;;;10.87;8.57;;;11.40;99.90;;;;;;919698;154;27411;-79
2022/11/29 09:16:01;;;;;;;8.83;7.90;;;11.40;99.90;;;;;;919896;154;27491;-79
2022/11/29 09:18:27;;;;;;;10.90;8.47;;;11.50;99.90;;;;;;921004;151;27400;-79
2022/11/29 09:20:54;;;;;;;8.87;7.97;;;11.50;99.90;;;;;;922547;154;28343;-79
2022/11/29 09:23:21;;;;;;;9.17;8.27;;;11.50;99.90;;;;;;922598;151;27343;-78
2022/11/29 09:25:47;;;;;;;9.33;8.43;;;11.60;99.90;;;;;;920630;151;27438;-78
2022/11/29 09:28:14;;;;;;;11.17;8.37;;;11.60;99.90;;;;;;922554;151;27437;-79
2022/11/29 09:30:40;;;;;;;12.03;8.97;;;11.60;99.90;;;;;;922445;151;27456;-78
2022/11/29 09:33:07;;;;;;;10.63;8.17;;;11.60;99.90;;;;;;923698;154;27401;-78
2022/11/29 09:35:34;;;;;;;11.23;9.20;;;11.60;99.90;;;;;;922972;154;27375;-78
2022/11/29 09:38:00;;;;;;;10.40;8.73;;;11.60;99.90;;;;;;922998;154;27374;-79
2022/11/29 09:40:42;;;;;;;10.17;9.17;;;11.70;99.90;;;;;;922640;154;27439;-78
2022/11/29 09:43:30;;;;;;;10.43;8.40;;;11.70;99.90;;;;;;922921;153;27335;-83
2022/11/29 09:46:06;;;;;;;9.23;8.33;;;11.70;99.90;;;;;;923953;150;27465;-80
2022/11/29 09:48:35;;;;;;;10.27;7.80;;;11.70;99.90;;;;;;915048;153;27370;-79
2022/11/29 09:51:13;;;;;;;9.20;8.27;;;11.70;99.90;;;;;;919396;151;27376;-79
2022/11/29 09:54:04;;;;;;;11.77;8.83;;;11.80;99.90;;;;;;922221;154;27428;-79
2022/11/29 09:56:36;;;;;;;11.10;9.90;;;11.80;99.90;;;;;;922837;150;27386;-78
2022/11/29 09:59:12;;;;;;;12.73;8.97;;;11.80;99.90;;;;;;920876;150;27318;-79
2022/11/29 10:01:38;;;;;;;14.30;9.93;;;11.80;99.90;;;;;;920502;151;27773;-77
2022/11/29 10:04:05;;;;;;;11.93;9.87;;;11.80;99.90;;;;;;921785;153;27282;-77
2022/11/29 10:06:35;;;;;;;11.50;9.43;;;11.80;99.90;;;;;;918741;154;28017;-77
2022/11/29 10:09:04;;;;;;;11.67;10.00;;;11.90;99.90;;;;;;909948;155;27518;-77
2022/11/29 10:11:37;;;;;;;10.77;9.33;;;11.90;99.90;;;;;;912982;152;27386;-78
2022/11/29 10:14:06;;;;;;;12.73;9.03;;;11.90;99.90;;;;;;929055;149;27350;-79
2022/11/29 10:16:41;;;;;;;12.33;10.03;;;11.90;99.90;;;;;;928858;149;27488;-78
2022/11/29 10:19:29;;;;;;;11.30;8.47;;;12.00;99.90;;;;;;931127;149;27364;-79
2022/11/29 10:21:56;;;;;;;10.07;9.03;;;12.00;99.90;;;;;;932211;149;27414;-78
2022/11/29 10:24:22;;;;;;;11.97;10.23;;;12.00;99.90;;;;;;933399;149;27798;-77
2022/11/29 10:26:48;;;;;;;10.47;9.37;;;12.00;99.90;;;;;;929239;149;27399;-78
2022/11/29 10:29:15;;;;;;;9.43;8.43;;;12.10;99.90;;;;;;933437;149;27396;-78
2022/11/29 10:31:48;;;;;;;12.13;9.73;;;12.10;99.90;;;;;;931298;149;27369;-79
2022/11/29 10:34:17;;;;;;;11.90;9.00;;;12.10;99.90;;;;;;931245;149;27510;-78
2022/11/29 10:36:49;;;;;;;11.23;9.40;;;12.20;99.90;;;;;;929316;149;27334;-78
2022/11/29 10:39:27;;;;;;;10.53;8.53;;;12.20;99.90;;;;;;930179;149;27358;-78
2022/11/29 10:41:57;;;;;;;11.57;9.30;;;12.20;99.90;;;;;;930969;149;27527;-78
2022/11/29 10:44:23;;;;;;;12.63;9.97;;;12.20;99.90;;;;;;930411;149;27405;-78
2022/11/29 10:46:50;;;;;;;10.40;9.30;;;12.20;99.90;;;;;;932200;149;27904;-78
2022/11/29 10:49:17;;;;;;;11.80;9.67;;;12.30;99.90;;;;;;932696;149;27423;-78
2022/11/29 10:51:43;;;;;;;12.77;9.17;;;12.30;99.90;;;;;;932854;149;27992;-78
2022/11/29 10:54:22;;;;;;;12.27;8.97;;;12.30;99.90;;;;;;931561;149;27483;-78
2022/11/29 10:56:48;;;;;;;9.83;8.83;;;12.30;99.90;;;;;;929875;149;27502;-78
2022/11/29 10:59:21;;;;;;;11.23;10.00;;;12.30;99.90;;;;;;931331;149;27318;-78
2022/11/29 11:01:47;;;;;;;11.07;9.70;;;12.30;99.90;;;;;;930984;149;27336;-78
2022/11/29 11:04:14;;;;;;;11.50;9.30;;;12.30;99.90;;;;;;931221;149;27347;-78
2022/11/29 11:06:43;;;;;;;10.10;8.87;;;12.30;99.90;;;;;;931770;149;27543;-77
2022/11/29 11:09:21;;;;;;;11.93;9.27;;;12.30;99.90;;;;;;928241;149;27462;-78
2022/11/29 11:11:51;;;;;;;11.60;9.00;;;12.30;99.90;;;;;;924720;151;27386;-78
2022/11/29 11:14:29;;;;;;;11.70;9.67;;;12.30;99.90;;;;;;923657;151;27419;-79
2022/11/29 11:16:55;;;;;;;11.27;9.83;;;12.40;99.90;;;;;;923492;150;28411;-79
2022/11/29 11:19:28;;;;;;;11.50;9.60;;;12.40;99.80;;;;;;924923;151;27372;-78
2022/11/29 11:21:54;;;;;;;14.73;10.47;;;12.40;99.90;;;;;;921926;151;27324;-79
2022/11/29 11:24:24;;;;;;;13.57;10.10;;;12.40;99.90;;;;;;922496;151;27497;-79
2022/11/29 11:26:50;;;;;;;13.40;10.13;;;12.40;99.80;;;;;;922458;151;27402;-78
2022/11/29 11:29:17;;;;;;;12.53;9.90;;;12.40;99.90;;;;;;924016;150;27352;-78
2022/11/29 11:31:43;;;;;;;11.73;9.67;;;12.40;99.90;;;;;;922252;151;27785;-79
2022/11/29 11:34:34;;;;;;;11.97;9.47;;;12.50;99.90;;;;;;923292;150;27327;-78
2022/11/29 11:37:19;;;;;;;11.97;10.07;;;12.50;99.90;;;;;;924405;151;27323;-79
2022/11/29 11:39:46;;;;;;;16.27;10.50;;;12.50;99.80;;;;;;923449;151;27468;-78
2022/11/29 11:44:57;;;;;;;12.93;10.53;;;12.50;99.80;;;;;;924160;151;27347;-78
2022/11/29 11:47:27;;;;;;;13.87;10.90;;;12.50;99.80;;;;;;922771;151;27473;-78
2022/11/29 11:49:53;;;;;;;11.67;10.47;;;12.50;99.80;;;;;;923505;151;27309;-79
2022/11/29 11:52:20;;;;;;;14.83;11.23;;;12.50;99.70;;;;;;925334;151;27365;-79
2022/11/29 11:54:46;;;;;;;11.73;10.47;;;12.50;99.60;;;;;;923031;151;27493;-78
2022/11/29 11:57:19;;;;;;;14.87;11.87;;;12.50;99.40;;;;;;924469;151;27374;-79
2022/11/29 11:59:51;;;;;;;13.03;11.73;;;12.50;99.30;;;;;;924316;150;27378;-79
2022/11/29 12:02:24;;;;;;;14.33;11.40;;;12.50;99.40;;;;;;924662;151;27332;-79
2022/11/29 12:04:50;;;;;;;14.33;11.97;;;12.50;99.50;;;;;;924114;151;27980;-79
2022/11/29 12:07:20;;;;;;;16.13;12.07;;;12.50;99.60;;;;;;924160;151;27504;-78
2022/11/29 12:09:46;;;;;;;13.33;11.43;;;12.40;99.60;;;;;;923872;151;27380;-78
2022/11/29 12:12:31;;;;;;;14.30;11.80;;;12.40;99.70;;;;;;923006;151;27418;-78
2022/11/29 12:15:07;;;;;;;14.27;11.57;;;12.40;99.70;;;;;;922355;150;27382;-79
2022/11/29 12:17:51;;;;;;;16.00;11.57;;;12.50;99.70;;;;;;924506;151;27381;-78
2022/11/29 12:20:21;;;;;;;17.37;13.43;;;12.40;99.70;;;;;;923911;151;27423;-78
2022/11/29 12:23:05;;;;;;;16.50;13.67;;;12.40;99.70;;;;;;923040;151;27411;-79
2022/11/29 12:25:32;;;;;;;17.87;13.70;;;12.40;99.70;;;;;;923401;151;27330;-79
2022/11/29 12:27:59;;;;;;;18.63;12.80;;;12.40;99.80;;;;;;921263;151;27396;-78
2022/11/29 12:30:25;;;;;;;16.57;12.90;;;12.40;99.90;;;;;;923065;151;27368;-78
2022/11/29 12:33:13;;;;;;;17.07;11.47;;;12.40;99.80;;;;;;924212;151;27536;-79
2022/11/29 12:35:49;;;;;;;16.60;12.57;;;12.40;99.90;;;;;;922903;151;27873;-78
2022/11/29 12:38:15;;;;;;;17.33;12.63;;;12.50;99.90;;;;;;922828;151;27449;-79
2022/11/29 12:41:13;;;;;;;18.27;12.97;;;12.50;99.90;;;;;;924672;151;27399;-78
2022/11/29 12:43:45;;;;;;;16.45;13.90;;;12.50;99.90;;;;;;925577;151;27477;-78
2022/11/29 12:46:11;;;;;;;16.83;13.60;;;12.50;99.90;;;;;;923406;151;27369;-78
2022/11/29 12:48:59;;;;;;;23.02;16.42;;;12.50;99.90;;;;;;921821;151;27491;-78
2022/11/29 12:51:34;;;;;;;19.87;15.80;;;12.50;99.90;;;;;;924138;151;27396;-78
2022/11/29 12:54:16;;;;;;;19.07;14.77;;;12.60;99.90;;;;;;923225;151;27395;-78
2022/11/29 12:56:57;;;;;;;18.50;13.88;;;12.60;99.90;;;;;;923730;151;27468;-78
2022/11/29 12:59:27;;;;;;;17.07;13.23;;;12.50;99.70;;;;;;926190;151;27715;-78
2022/11/29 13:01:54;;;;;;;15.37;12.10;;;12.60;99.70;;;;;;922759;150;27489;-78
2022/11/29 13:04:35;;;;;;;19.57;14.25;;;12.50;99.70;;;;;;924033;151;27421;-79
2022/11/29 13:07:20;;;;;;;17.12;13.62;;;12.50;99.80;;;;;;922945;150;27347;-78
2022/11/29 13:09:49;;;;;;;14.00;11.37;;;12.50;99.70;;;;;;924106;151;27415;-79
2022/11/29 13:12:27;;;;;;;17.37;13.93;;;12.50;99.70;;;;;;923967;151;27410;-77
2022/11/29 13:15:00;;;;;;;17.33;14.47;;;12.50;99.90;;;;;;920887;153;27403;-79
2022/11/29 13:17:45;;;;;;;14.80;11.57;;;12.50;99.90;;;;;;907100;151;27356;-78
2022/11/29 13:20:30;;;;;;;14.17;10.43;;;12.50;99.90;;;;;;922203;154;27357;-80